createdAt,value
2023-04-01T00:00:31.223Z,55.43
2023-04-01T00:01:33.392Z,55.48
2023-04-01T00:02:36.714Z,55.52
2023-04-01T00:03:39.358Z,55.29
2023-04-01T00:04:41.776Z,55.38
2023-04-01T00:05:43.923Z,55.47
2023-04-01T00:06:47.056Z,55.29
2023-04-01T00:07:49.196Z,55.16
2023-04-01T00:08:51.210Z,55.57
2023-04-01T00:10:03.606Z,55.45
2023-04-01T00:11:05.730Z,55.45
2023-04-01T00:12:10.543Z,55.64
2023-04-01T00:13:15.016Z,55.75
2023-04-01T00:14:18.422Z,55.65
2023-04-01T00:15:22.068Z,55.64
2023-04-01T00:16:25.129Z,55.39
2023-04-01T00:17:28.918Z,55.46
2023-04-01T00:18:30.862Z,55.67
2023-04-01T00:19:36.764Z,55.72
2023-04-01T00:20:48.730Z,55.74
2023-04-01T00:21:50.826Z,55.67
2023-04-01T00:22:55.437Z,55.63
2023-04-01T00:23:59.511Z,55.65
2023-04-01T00:25:01.934Z,55.36
2023-04-01T00:26:07.636Z,55.62
2023-04-01T00:27:10.930Z,55.45
2023-04-01T00:28:19.298Z,55.48
2023-04-01T00:29:25.037Z,55.67
2023-04-01T00:30:29.416Z,55.70
2023-04-01T00:31:35.226Z,55.77
2023-04-01T00:32:41.932Z,55.84
2023-04-01T00:33:51.503Z,55.74
2023-04-01T00:34:54.095Z,55.78
2023-04-01T00:35:57.982Z,55.73
2023-04-01T00:37:00.633Z,55.82
2023-04-01T00:38:04.311Z,55.77
2023-04-01T00:39:08.361Z,55.81
2023-04-01T00:40:35.302Z,55.77
2023-04-01T00:41:41.186Z,55.80
2023-04-01T00:42:47.450Z,55.79
2023-04-01T00:43:51.382Z,55.81
2023-04-01T00:44:56.249Z,55.65
2023-04-01T00:45:58.376Z,55.94
2023-04-01T00:47:00.896Z,55.66
2023-04-01T00:50:50.593Z,56.12
2023-04-01T00:52:01.442Z,55.91
2023-04-01T00:54:07.746Z,55.75
2023-04-01T00:55:11.714Z,55.78
2023-04-01T00:56:20.959Z,55.98
2023-04-01T00:58:54.299Z,55.69
2023-04-01T00:59:58.183Z,56.15
2023-04-01T01:01:01.745Z,55.98
2023-04-01T01:02:08.106Z,55.95
2023-04-01T01:03:10.296Z,55.72
2023-04-01T01:04:24.433Z,55.87
2023-04-01T01:05:50.040Z,56.05
2023-04-01T01:07:05.855Z,55.99
2023-04-01T01:12:13.287Z,55.76
2023-04-01T01:14:47.154Z,55.80
2023-04-01T01:16:17.835Z,55.80
2023-04-01T01:19:08.640Z,55.65
2023-04-01T01:22:09.199Z,55.63
2023-04-01T01:23:43.999Z,55.95
2023-04-01T01:25:14.348Z,55.99
2023-04-01T01:29:30.606Z,55.74
2023-04-01T01:30:42.621Z,55.83
2023-04-01T01:32:06.949Z,55.74
2023-04-01T01:33:13.027Z,55.93
2023-04-01T01:34:21.900Z,55.96
2023-04-01T01:36:38.940Z,55.93
2023-04-01T01:37:42.870Z,55.88
2023-04-01T01:38:45.463Z,55.65
2023-04-01T01:39:51.273Z,55.81
2023-04-01T01:40:53.592Z,55.99
2023-04-01T01:43:15.456Z,55.80
2023-04-01T01:44:18.519Z,56.00
2023-04-01T01:45:22.819Z,55.65
2023-04-01T01:46:26.091Z,55.85
2023-04-01T01:47:28.897Z,55.79
2023-04-01T01:48:31.570Z,55.84
2023-04-01T01:49:33.940Z,55.84
2023-04-01T01:50:36.993Z,55.60
2023-04-01T01:51:39.573Z,55.59
2023-04-01T01:52:42.968Z,55.63
2023-04-01T01:53:45.334Z,55.79
2023-04-01T01:54:52.878Z,55.56
2023-04-01T01:55:56.190Z,55.58
2023-04-01T01:57:07.485Z,55.71
2023-04-01T01:58:20.471Z,55.75
2023-04-01T01:59:22.972Z,55.65
2023-04-01T02:00:25.550Z,55.59
2023-04-01T02:01:29.823Z,55.68
2023-04-01T02:02:33.783Z,55.73
2023-04-01T02:03:37.351Z,55.48
2023-04-01T02:04:40.733Z,55.42
2023-04-01T02:05:42.875Z,55.71
2023-04-01T02:06:56.121Z,55.67
2023-04-01T02:09:11.718Z,55.60
2023-04-01T02:10:15.098Z,55.78
2023-04-01T02:11:18.652Z,55.81
2023-04-01T02:12:22.260Z,55.67
2023-04-01T02:13:30.475Z,55.56
2023-04-01T02:16:00.443Z,55.52
2023-04-01T02:17:05.836Z,55.82
2023-04-01T02:18:08.231Z,55.60
2023-04-01T02:19:11.582Z,55.75
2023-04-01T02:20:17.150Z,55.71
2023-04-01T02:21:19.854Z,55.80
2023-04-01T02:22:27.128Z,55.72
2023-04-01T02:23:29.201Z,55.67
2023-04-01T02:24:32.195Z,55.69
2023-04-01T02:25:36.083Z,55.63
2023-04-01T02:26:38.194Z,55.60
2023-04-01T02:27:41.610Z,55.68
2023-04-01T02:28:43.713Z,55.63
2023-04-01T02:29:45.888Z,55.68
2023-04-01T02:30:48.130Z,55.75
2023-04-01T02:31:50.213Z,55.57
2023-04-01T02:32:53.383Z,55.57
2023-04-01T02:33:55.453Z,55.73
2023-04-01T02:34:57.529Z,55.71
2023-04-01T02:35:59.935Z,55.76
2023-04-01T02:37:02.364Z,55.72
2023-04-01T02:38:04.309Z,55.54
2023-04-01T02:39:06.665Z,55.79
2023-04-01T02:40:13.175Z,55.58
2023-04-01T02:41:15.441Z,55.54
2023-04-01T02:42:17.369Z,55.90
2023-04-01T02:43:19.418Z,55.97
2023-04-01T02:44:21.426Z,56.03
2023-04-01T02:45:23.312Z,55.99
2023-04-01T02:46:25.859Z,56.05
2023-04-01T02:47:27.978Z,56.04
2023-04-01T02:48:30.177Z,56.06
2023-04-01T02:49:32.138Z,55.91
2023-04-01T02:50:34.328Z,55.82
2023-04-01T02:51:36.678Z,55.77
2023-04-01T02:52:39.326Z,55.97
2023-04-01T02:53:41.689Z,56.01
2023-04-01T02:54:43.785Z,55.95
2023-04-01T02:55:45.745Z,56.06
2023-04-01T02:56:48.216Z,55.99
2023-04-01T02:57:50.443Z,56.03
2023-04-01T02:58:53.817Z,55.85
2023-04-01T02:59:55.824Z,56.01
2023-04-01T03:00:57.900Z,55.85
2023-04-01T03:01:59.923Z,55.98
2023-04-01T03:03:02.058Z,55.71
2023-04-01T03:04:04.885Z,55.92
2023-04-01T03:05:08.654Z,55.95
2023-04-01T03:06:14.034Z,56.02
2023-04-01T03:07:16.388Z,56.05
2023-04-01T03:08:18.762Z,56.01
2023-04-01T03:09:20.821Z,55.94
2023-04-01T03:10:23.753Z,55.86
2023-04-01T03:11:26.363Z,56.07
2023-04-01T03:12:29.461Z,55.97
2023-04-01T03:13:32.950Z,55.99
2023-04-01T03:14:36.254Z,56.03
2023-04-01T03:15:38.372Z,56.03
2023-04-01T03:16:41.187Z,56.14
2023-04-01T03:17:43.577Z,56.15
2023-04-01T03:18:46.494Z,56.18
2023-04-01T03:19:48.585Z,56.25
2023-04-01T03:20:50.735Z,56.26
2023-04-01T03:21:52.705Z,56.22
2023-04-01T03:22:54.637Z,56.20
2023-04-01T03:23:56.551Z,56.30
2023-04-01T03:24:58.992Z,56.28
2023-04-01T03:26:01.068Z,56.19
2023-04-01T03:27:04.161Z,56.25
2023-04-01T03:28:06.850Z,56.21
2023-04-01T03:29:08.894Z,56.33
2023-04-01T03:30:11.853Z,56.23
2023-04-01T03:31:16.515Z,56.22
2023-04-01T03:32:20.541Z,56.32
2023-04-01T03:33:22.590Z,56.36
2023-04-01T03:34:25.464Z,56.30
2023-04-01T03:35:27.755Z,56.38
2023-04-01T03:36:29.968Z,56.35
2023-04-01T03:37:32.317Z,56.39
2023-04-01T03:38:35.998Z,56.46
2023-04-01T03:39:38.523Z,56.48
2023-04-01T03:40:43.605Z,56.49
2023-04-01T03:41:46.501Z,56.45
2023-04-01T03:42:48.622Z,56.53
2023-04-01T03:43:50.755Z,56.50
2023-04-01T03:44:52.750Z,56.51
2023-04-01T03:45:55.313Z,56.50
2023-04-01T03:46:58.079Z,56.48
2023-04-01T03:48:00.233Z,56.50
2023-04-01T03:49:03.609Z,56.42
2023-04-01T03:50:07.702Z,56.37
2023-04-01T03:51:09.823Z,56.46
2023-04-01T03:52:12.205Z,56.48
2023-04-01T03:53:14.359Z,56.54
2023-04-01T03:54:16.497Z,56.45
2023-04-01T03:55:18.959Z,56.39
2023-04-01T03:56:22.469Z,56.38
2023-04-01T03:57:25.977Z,56.53
2023-04-01T03:58:28.358Z,56.62
2023-04-01T03:59:30.840Z,56.67
2023-04-01T04:00:33.778Z,56.71
2023-04-01T04:01:36.186Z,56.65
2023-04-01T04:02:38.650Z,56.66
2023-04-01T04:03:41.605Z,56.63
2023-04-01T04:04:44.237Z,56.54
2023-04-01T04:05:48.045Z,56.58
2023-04-01T04:06:50.658Z,56.67
2023-04-01T04:07:53.458Z,56.68
2023-04-01T04:08:56.600Z,56.58
2023-04-01T04:09:58.680Z,56.56
2023-04-01T04:11:01.633Z,56.63
2023-04-01T04:12:05.614Z,56.57
2023-04-01T04:13:07.730Z,56.53
2023-04-01T04:14:11.922Z,56.53
2023-04-01T04:15:14.020Z,56.51
2023-04-01T04:16:17.065Z,56.51
2023-04-01T04:17:21.620Z,56.45
2023-04-01T04:18:23.569Z,56.43
2023-04-01T04:19:25.595Z,56.43
2023-04-01T04:20:29.079Z,56.43
2023-04-01T04:21:31.503Z,56.50
2023-04-01T04:22:35.182Z,56.50
2023-04-01T04:23:39.138Z,56.60
2023-04-01T04:24:41.600Z,56.71
2023-04-01T04:25:56.222Z,56.60
2023-04-01T04:26:58.510Z,56.58
2023-04-01T04:28:01.025Z,56.39
2023-04-01T04:29:03.101Z,56.67
2023-04-01T04:30:08.199Z,56.64
2023-04-01T04:31:10.637Z,56.68
2023-04-01T04:32:13.229Z,56.66
2023-04-01T04:33:15.644Z,56.41
2023-04-01T04:34:18.253Z,56.64
2023-04-01T04:35:20.995Z,56.56
2023-04-01T04:36:23.318Z,56.62
2023-04-01T04:37:26.235Z,56.64
2023-04-01T04:38:28.895Z,56.73
2023-04-01T04:39:30.943Z,56.57
2023-04-01T04:40:34.379Z,56.56
2023-04-01T04:41:37.781Z,56.53
2023-04-01T04:42:40.275Z,56.61
2023-04-01T04:45:05.582Z,56.49
2023-04-01T04:46:09.682Z,56.57
2023-04-01T04:47:11.999Z,56.76
2023-04-01T04:48:15.668Z,56.71
2023-04-01T04:49:17.682Z,56.55
2023-04-01T04:50:20.038Z,56.58
2023-04-01T04:51:22.209Z,56.68
2023-04-01T04:52:24.778Z,57.60
2023-04-01T04:53:26.934Z,58.56
2023-04-01T04:54:30.110Z,59.03
2023-04-01T04:55:34.711Z,59.17
2023-04-01T04:56:56.204Z,59.23
2023-04-01T04:57:59.720Z,59.40
2023-04-01T04:59:02.111Z,59.58
2023-04-01T05:00:08.118Z,59.73
2023-04-01T05:01:18.434Z,59.66
2023-04-01T05:02:20.806Z,59.57
2023-04-01T05:03:23.572Z,59.66
2023-04-01T05:04:25.933Z,59.67
2023-04-01T05:05:28.487Z,59.63
2023-04-01T05:06:31.538Z,59.32
2023-04-01T05:07:34.314Z,58.76
2023-04-01T05:08:36.431Z,58.82
2023-04-01T05:09:38.480Z,58.67
2023-04-01T05:10:41.281Z,58.31
2023-04-01T05:11:43.665Z,58.26
2023-04-01T05:12:46.267Z,58.25
2023-04-01T05:13:50.628Z,58.68
2023-04-01T05:14:52.689Z,58.64
2023-04-01T05:15:54.938Z,58.79
2023-04-01T05:16:57.220Z,58.24
2023-04-01T05:17:59.428Z,57.83
2023-04-01T05:19:02.807Z,57.73
2023-04-01T05:20:06.908Z,57.61
2023-04-01T05:21:10.613Z,57.40
2023-04-01T05:22:14.779Z,57.56
2023-04-01T05:23:17.078Z,57.28
2023-04-01T05:24:19.995Z,57.56
2023-04-01T05:25:22.303Z,57.71
2023-04-01T05:26:24.557Z,57.58
2023-04-01T05:27:26.516Z,57.21
2023-04-01T05:28:28.938Z,57.07
2023-04-01T05:29:31.200Z,56.87
2023-04-01T05:30:35.306Z,56.85
2023-04-01T05:31:39.625Z,56.48
2023-04-01T05:32:42.412Z,56.68
2023-04-01T05:33:44.531Z,56.87
2023-04-01T05:34:46.591Z,59.30
2023-04-01T05:35:48.688Z,58.31
2023-04-01T05:36:51.010Z,57.53
2023-04-01T05:37:53.078Z,56.89
2023-04-01T05:38:56.697Z,56.51
2023-04-01T05:40:01.094Z,56.16
2023-04-01T05:41:04.900Z,56.13
2023-04-01T05:42:07.898Z,56.02
2023-04-01T05:43:10.096Z,55.89
2023-04-01T05:44:12.582Z,55.81
2023-04-01T05:45:17.276Z,55.81
2023-04-01T05:47:43.006Z,55.68
2023-04-01T05:48:45.487Z,55.60
2023-04-01T05:49:48.126Z,55.58
2023-04-01T05:50:50.999Z,55.57
2023-04-01T05:51:52.963Z,55.56
2023-04-01T05:52:54.932Z,55.62
2023-04-01T05:53:57.881Z,55.70
2023-04-01T05:55:00.428Z,55.68
2023-04-01T05:56:03.999Z,55.63
2023-04-01T05:57:08.115Z,55.65
2023-04-01T05:58:10.577Z,55.61
2023-04-01T05:59:13.767Z,55.67
2023-04-01T06:00:18.352Z,55.78
2023-04-01T06:01:22.233Z,55.75
2023-04-01T06:02:24.425Z,55.75
2023-04-01T06:03:26.750Z,55.75
2023-04-01T06:04:31.397Z,55.68
2023-04-01T06:05:41.876Z,55.67
2023-04-01T06:06:44.112Z,55.71
2023-04-01T06:07:46.458Z,55.79
2023-04-01T06:08:48.817Z,55.83
2023-04-01T06:09:50.842Z,55.82
2023-04-01T06:12:47.917Z,55.71
2023-04-01T06:14:21.332Z,55.71
2023-04-01T06:15:28.153Z,55.76
2023-04-01T06:16:52.809Z,55.75
2023-04-01T06:18:25.243Z,55.77
2023-04-01T06:21:04.966Z,55.66
2023-04-01T06:22:30.207Z,55.80
2023-04-01T06:23:45.270Z,55.84
2023-04-01T06:25:13.738Z,55.83
2023-04-01T06:26:29.559Z,55.90
2023-04-01T06:28:02.020Z,55.89
2023-04-01T06:29:08.322Z,55.94
2023-04-01T06:30:34.240Z,55.90
2023-04-01T06:32:00.415Z,56.02
2023-04-01T06:33:34.191Z,55.96
2023-04-01T06:34:43.541Z,55.93
2023-04-01T06:36:08.478Z,55.92
2023-04-01T06:40:13.372Z,56.08
2023-04-01T06:41:31.064Z,56.08
2023-04-01T06:42:42.698Z,56.03
2023-04-01T06:44:03.032Z,55.95
2023-04-01T06:45:34.117Z,55.92
2023-04-01T06:47:10.981Z,55.73
2023-04-01T06:48:42.056Z,55.62
2023-04-01T06:50:08.677Z,55.63
2023-04-01T06:51:19.334Z,55.69
2023-04-01T06:54:13.146Z,55.64
2023-04-01T06:55:39.902Z,55.89
2023-04-01T06:58:06.600Z,55.70
2023-04-01T06:59:32.317Z,55.73
2023-04-01T07:01:53.644Z,55.66
2023-04-01T07:04:31.265Z,55.65
2023-04-01T07:05:34.969Z,55.81
2023-04-01T07:06:40.998Z,55.83
2023-04-01T07:07:51.551Z,55.81
2023-04-01T07:08:54.917Z,55.80
2023-04-01T07:09:58.458Z,55.72
2023-04-01T07:11:11.848Z,55.73
2023-04-01T07:12:43.050Z,55.69
2023-04-01T07:15:04.260Z,55.68
2023-04-01T07:16:13.552Z,55.75
2023-04-01T07:18:33.381Z,55.63
2023-04-01T07:20:54.502Z,55.52
2023-04-01T07:22:25.222Z,55.42
2023-04-01T07:23:34.581Z,55.40
2023-04-01T07:24:41.264Z,55.36
2023-04-01T07:25:45.096Z,55.38
2023-04-01T07:26:57.441Z,55.39
2023-04-01T07:28:05.269Z,55.41
2023-04-01T07:29:12.802Z,55.42
2023-04-01T07:30:19.415Z,55.43
2023-04-01T07:31:37.392Z,55.41
2023-04-01T07:32:52.563Z,55.41
2023-04-01T07:35:29.450Z,55.26
2023-04-01T07:39:51.869Z,55.35
2023-04-01T07:41:00.226Z,55.56
2023-04-01T07:42:18.408Z,55.55
2023-04-01T07:43:24.606Z,55.69
2023-04-01T07:44:38.067Z,55.65
2023-04-01T07:46:01.965Z,55.63
2023-04-01T07:47:24.603Z,55.58
2023-04-01T07:48:33.328Z,55.43
2023-04-01T07:49:58.256Z,55.34
2023-04-01T07:51:19.377Z,55.36
2023-04-01T07:52:46.856Z,55.36
2023-04-01T07:53:54.891Z,55.35
2023-04-01T07:56:35.760Z,55.31
2023-04-01T07:57:45.145Z,55.43
2023-04-01T08:00:30.411Z,55.53
2023-04-01T08:01:53.039Z,55.73
2023-04-01T08:03:15.102Z,55.71
2023-04-01T08:04:30.302Z,55.78
2023-04-01T08:05:43.372Z,55.79
2023-04-01T08:08:23.833Z,55.72
2023-04-01T08:11:34.785Z,55.59
2023-04-01T08:14:37.066Z,56.51
2023-04-01T08:16:19.087Z,56.40
2023-04-01T08:17:52.720Z,56.08
2023-04-01T08:19:06.206Z,55.87
2023-04-01T08:20:18.728Z,55.89
2023-04-01T08:21:25.887Z,56.00
2023-04-01T08:22:34.264Z,55.99
2023-04-01T08:23:43.248Z,55.98
2023-04-01T08:24:48.278Z,55.92
2023-04-01T08:26:17.483Z,55.99
2023-04-01T08:27:22.692Z,56.07
2023-04-01T08:30:18.626Z,55.90
2023-04-01T08:31:28.387Z,56.10
2023-04-01T08:32:38.386Z,55.88
2023-04-01T08:33:48.318Z,55.85
2023-04-01T08:35:01.740Z,55.89
2023-04-01T08:37:41.117Z,55.70
2023-04-01T08:38:52.245Z,55.87
2023-04-01T08:41:53.888Z,55.59
2023-04-01T08:43:26.119Z,55.61
2023-04-01T08:44:41.543Z,55.54
2023-04-01T08:46:10.626Z,55.52
2023-04-01T08:47:22.489Z,55.52
2023-04-01T08:48:50.392Z,55.28
2023-04-01T08:50:31.213Z,55.06
2023-04-01T08:52:13.727Z,55.04
2023-04-01T08:53:37.270Z,55.20
2023-04-01T08:55:05.382Z,55.16
2023-04-01T08:56:18.200Z,55.32
2023-04-01T08:58:01.325Z,55.56
2023-04-01T08:59:48.846Z,55.40
2023-04-01T09:01:37.491Z,55.45
2023-04-01T09:02:48.623Z,55.62
2023-04-01T09:04:41.282Z,55.58
2023-04-01T09:06:03.731Z,55.56
2023-04-01T09:07:37.051Z,54.90
2023-04-01T09:09:00.883Z,54.92
2023-04-01T09:10:24.833Z,54.78
2023-04-01T09:13:14.484Z,54.96
2023-04-01T09:16:14.870Z,55.02
2023-04-01T09:19:37.084Z,55.03
2023-04-01T09:22:34.447Z,54.98
2023-04-01T09:25:54.961Z,54.89
2023-04-01T09:28:20.881Z,54.80
2023-04-01T09:31:13.360Z,55.08
2023-04-01T09:34:03.529Z,55.10
2023-04-01T09:35:27.796Z,55.29
2023-04-01T09:36:44.935Z,55.14
2023-04-01T09:37:57.735Z,55.00
2023-04-01T09:40:49.540Z,54.84
2023-04-01T09:43:28.905Z,55.06
2023-04-01T09:44:36.974Z,54.88
2023-04-01T09:45:59.335Z,54.75
2023-04-01T09:47:32.400Z,54.40
2023-04-01T09:49:08.114Z,53.94
2023-04-01T09:52:16.496Z,53.60
2023-04-01T09:53:56.135Z,53.45
2023-04-01T09:55:19.911Z,53.41
2023-04-01T09:59:42.976Z,53.40
2023-04-01T10:02:51.441Z,53.31
2023-04-01T10:04:21.070Z,53.23
2023-04-01T10:05:44.167Z,53.03
2023-04-01T10:07:11.328Z,52.93
2023-04-01T10:08:34.622Z,52.94
2023-04-01T10:10:01.809Z,52.89
2023-04-01T10:11:12.703Z,53.12
2023-04-01T10:12:55.140Z,53.08
2023-04-01T10:14:37.801Z,52.92
2023-04-01T10:16:14.274Z,52.99
2023-04-01T10:17:40.047Z,52.83
2023-04-01T10:19:11.769Z,52.93
2023-04-01T10:20:22.313Z,52.91
2023-04-01T10:21:51.588Z,52.58
2023-04-01T10:23:22.325Z,52.99
2023-04-01T10:24:48.210Z,53.23
2023-04-01T10:26:31.323Z,53.37
2023-04-01T10:27:46.932Z,53.10
2023-04-01T10:31:06.174Z,53.10
2023-04-01T10:32:35.893Z,52.92
2023-04-01T10:33:57.417Z,53.10
2023-04-01T10:35:37.135Z,52.88
2023-04-01T10:38:45.180Z,52.71
2023-04-01T10:40:27.186Z,52.58
2023-04-01T10:42:26.867Z,51.96
2023-04-01T10:43:55.409Z,52.37
2023-04-01T10:45:13.064Z,52.43
2023-04-01T10:46:23.826Z,52.23
2023-04-01T10:48:00.652Z,51.86
2023-04-01T10:49:23.308Z,51.78
2023-04-01T10:50:53.130Z,51.80
2023-04-01T10:52:27.746Z,51.58
2023-04-01T10:55:39.593Z,51.70
2023-04-01T10:57:27.332Z,51.58
2023-04-01T10:59:19.025Z,51.25
2023-04-01T11:01:06.448Z,51.36
2023-04-01T11:02:59.674Z,51.09
2023-04-01T11:06:10.565Z,51.45
2023-04-01T11:07:41.856Z,51.47
2023-04-01T11:09:00.360Z,51.21
2023-04-01T11:10:12.618Z,51.43
2023-04-01T11:12:52.768Z,50.86
2023-04-01T11:14:37.019Z,50.63
2023-04-01T11:16:18.657Z,50.54
2023-04-01T11:17:28.318Z,50.55
2023-04-01T11:18:43.381Z,50.83
2023-04-01T11:20:04.575Z,50.83
2023-04-01T11:21:23.857Z,50.62
2023-04-01T11:22:54.508Z,50.63
2023-04-01T11:24:05.585Z,50.74
2023-04-01T11:25:16.099Z,50.80
2023-04-01T11:26:33.172Z,50.71
2023-04-01T11:30:00.804Z,50.88
2023-04-01T11:32:48.628Z,50.47
2023-04-01T11:34:28.384Z,50.19
2023-04-01T11:37:22.960Z,50.19
2023-04-01T11:40:46.818Z,50.01
2023-04-01T11:43:37.034Z,50.14
2023-04-01T11:46:32.176Z,50.28
2023-04-01T11:47:54.909Z,50.42
2023-04-01T11:49:07.735Z,50.39
2023-04-01T11:50:28.761Z,50.18
2023-04-01T11:51:48.673Z,50.34
2023-04-01T11:53:15.672Z,50.04
2023-04-01T11:54:41.078Z,50.14
2023-04-01T11:56:07.775Z,50.02
2023-04-01T11:57:17.097Z,49.96
2023-04-01T11:58:25.785Z,50.17
2023-04-01T11:59:46.892Z,50.38
2023-04-01T12:00:55.655Z,50.11
2023-04-01T12:02:11.046Z,50.24
2023-04-01T12:05:16.060Z,50.51
2023-04-01T12:06:45.660Z,50.35
2023-04-01T12:07:51.453Z,50.11
2023-04-01T12:09:32.567Z,50.09
2023-04-01T12:10:42.663Z,49.54
2023-04-01T12:11:56.139Z,49.34
2023-04-01T12:14:41.490Z,49.43
2023-04-01T12:16:09.813Z,49.16
2023-04-01T12:17:40.298Z,49.34
2023-04-01T12:19:02.216Z,49.62
2023-04-01T12:20:39.001Z,50.00
2023-04-01T12:22:04.690Z,49.85
2023-04-01T12:23:30.726Z,49.87
2023-04-01T12:24:48.686Z,49.96
2023-04-01T12:26:04.435Z,50.08
2023-04-01T12:27:31.158Z,50.01
2023-04-01T12:28:56.031Z,49.85
2023-04-01T12:30:10.414Z,50.07
2023-04-01T12:31:49.338Z,50.02
2023-04-01T12:33:38.766Z,49.89
2023-04-01T12:36:39.165Z,49.91
2023-04-01T12:40:07.942Z,50.03
2023-04-01T12:43:04.133Z,50.10
2023-04-01T12:44:44.061Z,49.85
2023-04-01T12:46:25.343Z,49.89
2023-04-01T12:48:10.733Z,50.08
2023-04-01T12:49:42.800Z,49.85
2023-04-01T12:52:52.740Z,49.73
2023-04-01T12:54:20.937Z,49.30
2023-04-01T12:55:49.592Z,49.03
2023-04-01T12:57:25.766Z,48.92
2023-04-01T12:59:09.314Z,48.96
2023-04-01T13:00:46.960Z,48.70
2023-04-01T13:02:17.015Z,48.90
2023-04-01T13:04:00.249Z,48.41
2023-04-01T13:06:59.076Z,48.78
2023-04-01T13:09:54.070Z,49.02
2023-04-01T13:11:11.109Z,49.14
2023-04-01T13:12:19.108Z,49.33
2023-04-01T13:13:35.584Z,49.12
2023-04-01T13:15:06.150Z,49.05
2023-04-01T13:16:35.050Z,48.91
2023-04-01T13:17:51.605Z,48.50
2023-04-01T13:20:46.076Z,48.35
2023-04-01T13:22:01.633Z,47.99
2023-04-01T13:24:50.377Z,48.19
2023-04-01T13:26:16.105Z,47.96
2023-04-01T13:27:36.728Z,47.97
2023-04-01T13:29:03.673Z,47.79
2023-04-01T13:30:28.679Z,47.61
2023-04-01T13:33:53.417Z,48.04
2023-04-01T13:35:15.079Z,47.86
2023-04-01T13:36:31.005Z,48.18
2023-04-01T13:41:02.408Z,48.17
2023-04-01T13:42:36.600Z,48.28
2023-04-01T13:45:14.697Z,48.58
2023-04-01T13:48:21.459Z,48.65
2023-04-01T13:49:36.970Z,49.02
2023-04-01T13:50:49.451Z,49.07
2023-04-01T13:52:20.319Z,49.03
2023-04-01T13:53:54.228Z,48.73
2023-04-01T13:55:40.230Z,48.51
2023-04-01T13:58:43.682Z,48.23
2023-04-01T14:00:19.804Z,48.18
2023-04-01T14:03:29.267Z,48.43
2023-04-01T14:05:15.174Z,48.57
2023-04-01T14:08:22.053Z,48.49
2023-04-01T14:11:40.616Z,48.42
2023-04-01T14:13:17.274Z,48.47
2023-04-01T14:19:35.910Z,48.72
2023-04-01T14:22:15.001Z,48.54
2023-04-01T14:23:41.517Z,48.57
2023-04-01T14:25:13.192Z,48.34
2023-04-01T14:26:44.985Z,48.28
2023-04-01T14:27:50.721Z,48.46
2023-04-01T14:29:08.666Z,48.39
2023-04-01T14:30:41.142Z,48.41
2023-04-01T14:32:08.132Z,48.25
2023-04-01T14:33:28.479Z,48.31
2023-04-01T14:34:36.988Z,48.40
2023-04-01T14:35:59.326Z,48.48
2023-04-01T14:37:20.333Z,48.48
2023-04-01T14:38:52.018Z,48.50
2023-04-01T14:40:21.400Z,48.32
2023-04-01T14:43:10.124Z,48.52
2023-04-01T14:44:32.956Z,48.54
2023-04-01T14:48:38.172Z,48.86
2023-04-01T14:49:42.515Z,48.76
2023-04-01T14:52:25.348Z,48.59
2023-04-01T14:53:29.729Z,48.59
2023-04-01T14:54:39.577Z,48.35
2023-04-01T14:55:45.333Z,48.34
2023-04-01T14:56:50.469Z,48.43
2023-04-01T14:58:00.658Z,48.23
2023-04-01T14:59:06.522Z,48.27
2023-04-01T15:00:15.149Z,48.17
2023-04-01T15:01:49.164Z,48.15
2023-04-01T15:02:59.589Z,48.10
2023-04-01T15:04:26.170Z,48.17
2023-04-01T15:05:49.240Z,48.27
2023-04-01T15:07:09.955Z,48.72
2023-04-01T15:08:23.933Z,49.15
2023-04-01T15:09:42.733Z,49.62
2023-04-01T15:10:54.561Z,49.93
2023-04-01T15:12:15.943Z,50.10
2023-04-01T15:13:39.399Z,50.38
2023-04-01T15:15:07.140Z,50.65
2023-04-01T15:16:16.546Z,50.94
2023-04-01T15:17:46.817Z,51.29
2023-04-01T15:19:11.273Z,51.47
2023-04-01T15:20:34.185Z,51.67
2023-04-01T15:21:59.974Z,52.01
2023-04-01T15:25:10.863Z,52.06
2023-04-01T15:26:17.429Z,52.79
2023-04-01T15:30:20.599Z,53.28
2023-04-01T15:31:44.033Z,53.80
2023-04-01T15:34:04.551Z,53.98
2023-04-01T15:35:16.026Z,54.00
2023-04-01T15:36:40.318Z,54.87
2023-04-01T15:39:20.324Z,54.23
2023-04-01T15:40:35.852Z,54.62
2023-04-01T15:43:27.449Z,54.58
2023-04-01T15:44:37.514Z,54.58
2023-04-01T15:46:58.767Z,54.56
2023-04-01T15:48:13.704Z,54.88
2023-04-01T15:52:24.268Z,54.60
2023-04-01T15:53:44.946Z,54.92
2023-04-01T15:56:23.474Z,54.90
2023-04-01T15:58:05.412Z,54.98
2023-04-01T15:59:47.332Z,55.01
2023-04-01T16:00:56.150Z,54.94
2023-04-01T16:02:34.659Z,54.89
2023-04-01T16:05:10.121Z,54.90
2023-04-01T16:07:55.935Z,54.86
2023-04-01T16:09:05.511Z,55.11
2023-04-01T16:12:28.187Z,54.93
2023-04-01T16:13:49.701Z,54.89
2023-04-01T16:14:58.171Z,54.90
2023-04-01T16:16:26.941Z,54.68
2023-04-01T16:19:36.957Z,54.33
2023-04-01T16:21:08.439Z,54.33
2023-04-01T16:22:20.937Z,54.32
2023-04-01T16:23:56.418Z,54.29
2023-04-01T16:25:39.102Z,54.25
2023-04-01T16:30:10.600Z,54.08
2023-04-01T16:31:39.066Z,54.11
2023-04-01T16:32:54.616Z,54.02
2023-04-01T16:34:13.124Z,54.01
2023-04-01T16:35:32.157Z,54.08
2023-04-01T16:36:48.211Z,54.10
2023-04-01T16:38:03.457Z,54.17
2023-04-01T16:42:17.935Z,54.55
2023-04-01T16:43:43.161Z,54.80
2023-04-01T16:45:02.746Z,54.85
2023-04-01T16:46:28.277Z,54.75
2023-04-01T16:47:34.693Z,54.76
2023-04-01T16:49:00.162Z,54.81
2023-04-01T16:51:26.179Z,54.80
2023-04-01T16:54:12.338Z,55.01
2023-04-01T16:55:21.140Z,55.27
2023-04-01T16:56:27.921Z,55.26
2023-04-01T16:57:37.025Z,55.32
2023-04-01T16:58:45.897Z,55.37
2023-04-01T16:59:54.763Z,55.42
2023-04-01T17:01:08.042Z,55.45
2023-04-01T17:02:15.342Z,55.45
2023-04-01T17:05:08.676Z,55.54
2023-04-01T17:06:27.728Z,55.75
2023-04-01T17:07:57.746Z,55.76
2023-04-01T17:09:30.571Z,55.78
2023-04-01T17:13:50.231Z,55.77
2023-04-01T17:15:17.663Z,56.02
2023-04-01T17:16:43.252Z,55.92
2023-04-01T17:18:08.925Z,56.00
2023-04-01T17:19:26.791Z,56.00
2023-04-01T17:20:36.388Z,56.09
2023-04-01T17:21:52.361Z,56.04
2023-04-01T17:23:14.785Z,56.17
2023-04-01T17:24:26.575Z,56.19
2023-04-01T17:25:41.624Z,56.27
2023-04-01T17:27:08.880Z,56.26
2023-04-01T17:28:42.143Z,56.32
2023-04-01T17:30:00.260Z,56.38
2023-04-01T17:31:14.775Z,56.45
2023-04-01T17:32:57.088Z,56.49
2023-04-01T17:36:24.150Z,56.31
2023-04-01T17:38:04.781Z,56.82
2023-04-01T17:39:45.728Z,56.77
2023-04-01T17:40:53.630Z,56.79
2023-04-01T17:42:11.114Z,56.80
2023-04-01T17:43:26.593Z,56.87
2023-04-01T17:44:53.275Z,56.98
2023-04-01T17:47:25.709Z,57.02
2023-04-01T17:48:53.208Z,57.24
2023-04-01T17:50:24.804Z,57.18
2023-04-01T17:51:44.065Z,57.18
2023-04-01T17:53:06.767Z,57.17
2023-04-01T17:56:44.473Z,56.88
2023-04-01T17:57:55.848Z,57.40
2023-04-01T18:00:18.354Z,57.40
2023-04-01T18:01:32.279Z,57.44
2023-04-01T18:03:03.093Z,57.46
2023-04-01T18:05:49.981Z,57.46
2023-04-01T18:08:49.896Z,57.34
2023-04-01T18:10:24.628Z,57.55
2023-04-01T18:13:24.928Z,57.26
2023-04-01T18:14:43.393Z,57.61
2023-04-01T18:16:11.425Z,57.58
2023-04-01T18:17:17.265Z,57.73
2023-04-01T18:18:31.234Z,57.70
2023-04-01T18:19:53.428Z,57.74
2023-04-01T18:21:40.650Z,57.78
2023-04-01T18:23:20.414Z,57.80
2023-04-01T18:24:33.552Z,57.76
2023-04-01T18:25:39.233Z,57.74
2023-04-01T18:26:44.465Z,57.80
2023-04-01T18:27:50.047Z,57.94
2023-04-01T18:30:16.947Z,57.89
2023-04-01T18:31:22.746Z,58.11
2023-04-01T18:32:38.389Z,58.11
2023-04-01T18:34:16.884Z,58.08
2023-04-01T18:36:47.704Z,57.95
2023-04-01T18:38:03.553Z,58.12
2023-04-01T18:39:15.459Z,58.07
2023-04-01T18:40:36.740Z,58.02
2023-04-01T18:42:06.881Z,58.02
2023-04-01T18:43:25.866Z,57.95
2023-04-01T18:44:48.698Z,57.94
2023-04-01T18:46:02.555Z,57.95
2023-04-01T18:49:02.436Z,57.80
2023-04-01T18:50:26.340Z,58.07
2023-04-01T18:51:47.136Z,58.08
2023-04-01T18:52:51.804Z,58.10
2023-04-01T18:54:07.197Z,58.08
2023-04-01T18:55:38.853Z,58.07
2023-04-01T18:56:45.060Z,58.04
2023-04-01T18:57:55.556Z,58.05
2023-04-01T19:00:41.624Z,57.93
2023-04-01T19:02:04.404Z,58.16
2023-04-01T19:03:23.384Z,58.11
2023-04-01T19:04:40.422Z,58.08
2023-04-01T19:05:45.188Z,57.99
2023-04-01T19:06:52.549Z,57.96
2023-04-01T19:07:56.353Z,57.99
2023-04-01T19:09:02.117Z,57.96